Time;durP1;ratioP1;P1;durP2;ratioP2;P2;SDS_P1;SDS_P2;PMS_P1;PMS_P2;Temp;Humidity;BMP_temperature;BMP_pressure;BME280_temperature;BME280_humidity;BME280_pressure;Samples;Min_cycle;Max_cycle;Signal;HPM_P1;HPM_P2
2021/08/23 00:02:09;;;;;;;14.30;10.02;;;20.90;99.90;;;21.14;79.35;101959.66;5113241;28;20054;-69
2021/08/23 00:04:40;;;;;;;12.15;10.88;;;20.90;99.90;;;21.12;79.43;101960.63;5113477;28;20457;-69
2021/08/23 00:07:08;;;;;;;16.17;10.07;;;20.80;99.90;;;21.10;79.38;101960.69;5113282;28;20478;-69
2021/08/23 00:09:37;;;;;;;11.93;10.38;;;20.80;99.90;;;21.10;79.42;101968.75;5113114;28;20047;-69
2021/08/23 00:12:06;;;;;;;14.10;12.48;;;20.80;99.90;;;21.05;79.48;101959.06;5113094;28;20118;-69
2021/08/23 00:14:35;;;;;;;18.58;12.20;;;20.70;99.90;;;21.05;79.50;101961.75;5113350;28;20093;-69
2021/08/23 00:17:04;;;;;;;16.30;10.77;;;20.80;99.90;;;21.08;79.66;101956.31;5113302;28;20499;-69
2021/08/23 00:19:33;;;;;;;12.90;11.48;;;20.80;99.90;;;21.08;79.63;101959.00;5113048;28;20040;-69
2021/08/23 00:22:19;;;;;;;13.53;11.20;;;20.80;99.90;;;21.14;79.54;101965.06;5113030;28;20050;-69
2021/08/23 00:24:51;;;;;;;14.65;11.45;;;20.80;99.90;;;21.16;79.39;101978.44;5113346;28;20126;-69
2021/08/23 00:27:20;;;;;;;13.13;10.73;;;20.90;99.90;;;21.08;79.27;101967.06;5115014;28;20045;-69
2021/08/23 00:29:48;;;;;;;14.70;11.75;;;20.80;99.90;;;21.14;79.15;101973.13;5098827;28;20477;-69
2021/08/23 00:32:17;;;;;;;14.50;10.95;;;20.80;99.90;;;21.07;79.13;101967.97;5116818;28;20097;-69
2021/08/23 00:34:47;;;;;;;16.00;11.63;;;20.90;99.90;;;21.13;79.10;101983.94;5117345;28;20122;-69
2021/08/23 00:37:16;;;;;;;12.77;11.48;;;20.80;99.90;;;21.14;79.22;101974.91;5116933;28;20044;-69
2021/08/23 00:39:45;;;;;;;12.65;11.30;;;20.80;99.90;;;20.97;79.33;101966.44;5116554;28;20517;-68
2021/08/23 00:42:13;;;;;;;14.30;11.70;;;20.80;99.90;;;21.18;79.09;101979.28;5116661;28;20490;-69
2021/08/23 00:44:43;;;;;;;15.10;12.90;;;20.90;99.90;;;20.59;79.11;101895.84;5116563;28;20112;-69
2021/08/23 00:47:12;;;;;;;14.05;12.32;;;20.80;99.90;;;21.05;79.38;101984.19;5116768;28;20046;-69
2021/08/23 00:49:40;;;;;;;17.70;11.75;;;20.80;99.90;;;21.08;79.51;101989.44;5116494;28;20044;-69
2021/08/23 00:52:10;;;;;;;14.18;11.77;;;20.70;99.90;;;21.01;79.72;101985.19;5116447;28;20032;-69
2021/08/23 00:54:39;;;;;;;14.20;11.43;;;20.70;99.90;;;20.99;79.69;101994.19;5098414;28;20151;-69
2021/08/23 00:57:08;;;;;;;15.02;12.38;;;20.70;99.90;;;20.98;79.74;101989.75;5116316;28;20039;-69
2021/08/23 00:59:40;;;;;;;12.70;11.40;;;20.70;99.90;;;20.99;79.99;101997.78;5116608;28;20398;-69
2021/08/23 01:02:17;;;;;;;16.35;11.50;;;20.70;99.90;;;21.05;79.18;101991.34;5116593;28;20047;-69
2021/08/23 01:04:51;;;;;;;14.68;11.00;;;20.70;99.90;;;21.09;79.29;102004.69;5116296;28;20043;-69
2021/08/23 01:07:25;;;;;;;12.20;10.93;;;20.80;99.90;;;21.06;79.54;102006.59;5116037;28;20550;-69
2021/08/23 01:10:00;;;;;;;13.13;11.73;;;20.70;99.90;;;21.06;79.36;102004.75;5116228;28;20040;-69
2021/08/23 01:12:28;;;;;;;12.18;10.88;;;20.70;99.90;;;20.96;79.20;101999.69;5116318;28;20104;-69
2021/08/23 01:15:00;;;;;;;13.63;12.13;;;20.70;99.90;;;20.91;79.19;101997.09;5115926;28;20122;-69
2021/08/23 01:17:28;;;;;;;14.38;11.82;;;20.60;99.90;;;20.95;78.95;102016.72;5115999;28;20052;-69
2021/08/23 01:20:00;;;;;;;13.60;11.50;;;20.70;99.90;;;20.89;78.95;102006.13;5115911;28;20097;-69
2021/08/23 01:22:37;;;;;;;14.88;11.98;;;20.60;99.90;;;20.84;79.16;102013.47;5116465;28;20055;-69
2021/08/23 01:25:08;;;;;;;15.50;12.00;;;20.60;99.90;;;20.73;79.51;102000.31;5115777;28;20088;-70
2021/08/23 01:27:39;;;;;;;13.35;11.63;;;20.50;99.90;;;20.84;79.19;102035.00;5115753;28;20069;-69
2021/08/23 01:30:10;;;;;;;13.00;11.65;;;20.60;99.90;;;20.81;79.37;102024.34;5115809;28;20108;-70
2021/08/23 01:32:42;;;;;;;14.65;11.57;;;20.50;99.90;;;20.79;79.35;102024.34;5097707;28;20048;-69
2021/08/23 01:35:10;;;;;;;13.57;11.70;;;20.50;99.90;;;20.80;79.35;102027.94;5097595;28;20482;-69
2021/08/23 01:37:38;;;;;;;12.90;10.93;;;20.50;99.90;;;20.78;79.40;102029.78;5114984;28;20130;-69
2021/08/23 01:40:09;;;;;;;14.02;11.48;;;20.50;99.90;;;20.78;79.37;102036.06;5097172;28;20051;-69
2021/08/23 01:42:38;;;;;;;13.23;11.93;;;20.40;99.90;;;20.72;79.33;102035.31;5116112;28;20044;-69
2021/08/23 01:45:07;;;;;;;11.85;10.63;;;20.40;99.90;;;20.80;79.45;102044.97;5115456;28;20098;-69
2021/08/23 01:47:35;;;;;;;13.25;11.88;;;20.40;99.90;;;20.79;79.32;102042.31;5115570;28;20393;-69
2021/08/23 01:50:09;;;;;;;13.85;12.45;;;20.50;99.90;;;20.75;79.42;102046.00;5115858;28;20123;-69
2021/08/23 01:52:37;;;;;;;13.32;11.93;;;20.40;99.90;;;20.77;79.50;102050.41;5115305;28;20040;-69
2021/08/23 01:55:07;;;;;;;13.23;10.80;;;20.50;99.90;;;20.75;79.61;102051.41;5115491;28;20438;-69
2021/08/23 01:57:35;;;;;;;13.80;11.80;;;20.50;99.90;;;20.69;79.61;102052.44;5115180;28;20100;-69
2021/08/23 02:00:05;;;;;;;15.48;11.95;;;20.40;99.90;;;20.66;79.88;102053.41;5115151;28;20482;-69
2021/08/23 02:02:33;;;;;;;13.07;11.80;;;20.40;99.90;;;20.61;79.87;102054.47;5115648;28;20156;-69
2021/08/23 02:05:02;;;;;;;13.35;11.70;;;20.30;99.90;;;20.55;80.04;102043.88;5115259;28;20044;-69
2021/08/23 02:07:32;;;;;;;13.25;11.48;;;20.30;99.90;;;20.53;79.97;102060.03;5115248;28;20064;-69
2021/08/23 02:10:00;;;;;;;13.93;11.97;;;20.30;99.90;;;20.53;79.98;102061.84;5114868;28;20406;-69
2021/08/23 02:12:29;;;;;;;15.10;11.48;;;20.30;99.90;;;20.53;79.90;102068.09;5115125;28;20425;-69
2021/08/23 02:14:57;;;;;;;14.20;11.32;;;20.30;99.90;;;20.54;80.04;102068.97;5115173;28;20110;-69
2021/08/23 02:17:26;;;;;;;12.25;10.82;;;20.30;99.90;;;20.51;80.07;102063.69;5114999;28;20051;-69
2021/08/23 02:19:55;;;;;;;12.63;11.25;;;20.30;99.90;;;20.48;79.91;102077.19;5115001;28;20075;-70
2021/08/23 02:22:23;;;;;;;14.00;12.10;;;20.30;99.90;;;20.37;79.97;102081.97;5114669;28;20123;-69
2021/08/23 02:24:53;;;;;;;14.05;11.40;;;20.10;99.90;;;20.51;79.83;102086.09;5114988;28;20040;-69
2021/08/23 02:27:21;;;;;;;14.97;11.60;;;20.20;99.90;;;20.53;79.68;102086.94;5114526;28;20051;-70
2021/08/23 02:29:49;;;;;;;12.75;11.45;;;20.20;99.90;;;20.54;79.57;102075.25;5114485;28;20376;-69
2021/08/23 02:32:18;;;;;;;16.52;11.73;;;20.30;99.90;;;20.50;79.44;102084.31;5114675;28;20048;-69
2021/08/23 02:34:46;;;;;;;12.32;11.02;;;20.30;99.90;;;20.56;79.55;102100.28;5114731;28;20043;-69
2021/08/23 02:37:15;;;;;;;13.60;11.55;;;20.30;99.90;;;20.57;79.06;102099.38;5114276;28;20031;-69
2021/08/23 02:39:43;;;;;;;12.90;10.32;;;20.30;99.90;;;20.61;78.86;102109.09;5114031;28;20059;-68
2021/08/23 02:42:13;;;;;;;11.80;10.68;;;20.30;99.90;;;20.56;78.70;102102.97;5114417;28;20167;-69
2021/08/23 02:44:41;;;;;;;11.73;10.52;;;20.30;99.90;;;20.44;79.04;102103.28;5114626;28;20058;-69
2021/08/23 02:47:10;;;;;;;12.13;9.65;;;20.20;99.90;;;20.48;78.89;102101.38;5114540;28;20130;-69
2021/08/23 02:49:39;;;;;;;13.10;10.38;;;20.20;99.90;;;20.52;78.82;102105.75;5113399;28;20048;-69
2021/08/23 02:52:07;;;;;;;12.70;9.77;;;20.20;99.90;;;20.51;78.59;102112.97;5114428;28;20075;-70
2021/08/23 02:54:35;;;;;;;12.50;9.98;;;20.20;99.90;;;20.40;78.53;102106.09;5114018;28;20512;-69
2021/08/23 02:57:04;;;;;;;10.25;9.15;;;20.20;99.90;;;20.48;78.91;102110.34;5114015;28;20069;-69
2021/08/23 02:59:34;;;;;;;13.93;8.82;;;20.20;99.90;;;20.43;78.67;102117.66;5114547;28;20134;-69
2021/08/23 03:02:02;;;;;;;10.88;8.55;;;20.10;99.90;;;20.52;78.63;102125.47;5114253;28;20044;-69
2021/08/23 03:04:31;;;;;;;14.60;9.40;;;20.20;99.90;;;20.53;78.15;102124.56;5114180;28;20126;-69
2021/08/23 03:06:59;;;;;;;11.15;8.73;;;20.20;99.90;;;20.56;77.63;102127.16;5114108;28;20047;-69
2021/08/23 03:09:27;;;;;;;10.32;8.57;;;20.30;99.90;;;20.56;77.48;102126.28;5113976;28;20394;-69
2021/08/23 03:11:56;;;;;;;12.52;8.48;;;20.30;99.90;;;20.57;76.93;102128.94;5113810;28;20047;-69
2021/08/23 03:14:24;;;;;;;9.75;8.45;;;20.30;99.90;;;20.58;77.11;102129.81;5114017;28;20047;-69
2021/08/23 03:16:54;;;;;;;11.00;7.70;;;20.30;99.90;;;20.58;76.97;102141.47;5095733;28;20074;-70
2021/08/23 03:19:25;;;;;;;11.70;8.30;;;20.30;99.90;;;20.58;77.10;102135.19;5113653;28;20048;-70
2021/08/23 03:21:56;;;;;;;9.43;7.68;;;20.30;99.90;;;20.58;76.78;102136.09;5114017;28;20040;-70
2021/08/23 03:24:25;;;;;;;8.63;7.43;;;20.30;99.90;;;20.56;76.59;102132.53;5113804;28;20100;-70
2021/08/23 03:26:53;;;;;;;10.98;7.72;;;20.30;99.90;;;20.59;76.18;102139.66;5113548;28;20446;-70
2021/08/23 03:29:22;;;;;;;10.98;7.38;;;20.30;99.90;;;20.66;76.23;102143.94;5113462;28;20052;-70
2021/08/23 03:31:50;;;;;;;11.27;6.80;;;20.30;99.90;;;20.59;76.09;102143.25;5113701;28;20039;-68
2021/08/23 03:34:23;;;;;;;11.35;7.50;;;20.30;99.90;;;20.49;76.08;102147.06;5113539;28;20494;-69
2021/08/23 03:36:51;;;;;;;11.63;7.57;;;20.30;99.90;;;20.54;75.79;102153.22;5113771;28;20105;-68
2021/08/23 03:39:20;;;;;;;12.23;6.60;;;20.30;99.90;;;20.58;76.00;102154.91;5113409;28;20497;-69
2021/08/23 03:41:48;;;;;;;9.10;6.65;;;20.30;99.90;;;20.40;76.13;102146.41;5113249;28;20052;-69
2021/08/23 03:44:17;;;;;;;10.73;6.40;;;20.20;99.90;;;20.59;75.85;102164.75;5095446;28;20557;-69
2021/08/23 03:46:45;;;;;;;10.20;6.40;;;20.30;99.90;;;20.54;75.78;102169.34;5113624;28;20092;-68
2021/08/23 03:49:13;;;;;;;9.13;6.22;;;20.30;99.90;;;20.40;75.54;102135.66;5113205;28;20067;-69
2021/08/23 03:51:43;;;;;;;9.40;6.55;;;20.30;99.90;;;20.53;75.55;102159.53;5113287;28;20563;-68
2021/08/23 03:54:11;;;;;;;10.50;6.13;;;20.30;99.90;;;20.48;75.71;102150.66;5113364;28;20144;-68
2021/08/23 03:56:40;;;;;;;9.02;5.93;;;20.30;99.90;;;20.56;75.51;102170.19;5113265;28;20109;-68
2021/08/23 03:59:08;;;;;;;12.70;6.97;;;20.30;99.90;;;20.52;75.53;102170.28;5113789;28;20105;-68
2021/08/23 04:01:37;;;;;;;9.50;6.15;;;20.30;99.90;;;20.53;75.73;102178.34;5115821;28;20405;-69
2021/08/23 04:04:05;;;;;;;12.70;6.35;;;20.30;99.90;;;20.53;75.12;102170.28;5117322;28;20502;-69
2021/08/23 04:06:36;;;;;;;7.38;5.47;;;20.30;99.90;;;20.49;75.15;102168.59;5117234;28;20483;-71
2021/08/23 04:09:06;;;;;;;9.30;5.90;;;20.20;99.90;;;20.49;74.94;102167.69;5116962;28;20050;-70
2021/08/23 04:11:34;;;;;;;9.63;5.43;;;20.20;99.90;;;20.50;74.98;102178.41;5117787;28;20047;-71
2021/08/23 04:14:02;;;;;;;8.95;5.75;;;20.30;99.90;;;20.51;74.94;102188.25;5117426;28;20104;-71
2021/08/23 04:16:34;;;;;;;12.02;6.30;;;20.30;99.90;;;20.39;74.85;102167.03;5117146;28;20043;-72
2021/08/23 04:19:02;;;;;;;10.05;5.75;;;20.20;99.90;;;20.45;75.09;102196.47;5117077;28;20410;-72
2021/08/23 04:21:31;;;;;;;8.07;6.07;;;20.20;99.90;;;20.55;74.64;102199.81;5117314;28;20120;-72
2021/08/23 04:24:02;;;;;;;9.68;6.15;;;20.30;99.90;;;20.42;74.73;102182.22;5116967;28;20039;-70
2021/08/23 04:26:32;;;;;;;9.00;5.85;;;20.30;99.90;;;20.45;74.74;102193.78;5117173;28;20093;-70
2021/08/23 04:29:00;;;;;;;8.30;5.50;;;20.20;99.90;;;20.47;74.52;102204.47;5116793;28;20039;-69
2021/08/23 04:31:31;;;;;;;8.45;6.20;;;20.20;99.90;;;20.46;74.65;102200.91;5116833;28;20039;-69
2021/08/23 04:34:04;;;;;;;9.45;6.07;;;20.20;99.90;;;20.52;74.55;102205.25;5117141;28;20043;-69
2021/08/23 04:36:35;;;;;;;8.32;5.60;;;20.20;99.90;;;20.58;74.29;102215.84;5116679;28;20071;-69
2021/08/23 04:39:07;;;;;;;10.65;6.00;;;20.30;99.90;;;20.56;74.07;102212.31;5116765;28;20490;-69
2021/08/23 04:41:40;;;;;;;;;;;20.30;99.90;;;20.51;74.11;102223.22;5117458;28;20052;-69
2021/08/23 04:44:10;;;;;;;10.02;5.40;;;20.30;99.90;;;20.57;73.93;102225.75;5116725;28;20010;-70
2021/08/23 04:46:39;;;;;;;12.93;6.35;;;20.30;99.90;;;20.60;73.69;102227.47;5117058;28;20047;-70
2021/08/23 04:49:07;;;;;;;10.18;6.43;;;20.40;99.90;;;20.49;73.34;102214.28;5116355;28;20468;-69
2021/08/23 04:51:35;;;;;;;10.10;6.47;;;20.30;99.90;;;20.61;73.58;102235.50;5116517;28;20096;-69
2021/08/23 04:54:04;;;;;;;9.73;5.50;;;20.30;99.90;;;20.63;73.31;102241.72;5116388;28;20085;-70
2021/08/23 04:56:32;;;;;;;10.13;5.35;;;20.40;99.90;;;20.59;73.46;102240.06;5116625;28;20507;-69
2021/08/23 04:59:02;;;;;;;9.50;5.55;;;20.30;99.90;;;20.58;73.26;102253.50;5116618;28;20386;-70
2021/08/23 05:01:31;;;;;;;;;;;20.40;99.90;;;20.69;73.04;102255.00;5116866;28;20036;-69
2021/08/23 05:03:59;;;;;;;11.35;5.97;;;20.50;99.90;;;20.67;73.15;102262.22;5116283;28;20014;-69
2021/08/23 05:06:28;;;;;;;9.90;5.80;;;20.40;99.90;;;20.59;73.22;102240.06;5116070;28;20040;-70
2021/08/23 05:08:56;;;;;;;10.43;5.97;;;20.40;99.90;;;20.73;73.21;102268.41;5115938;28;20097;-69
2021/08/23 05:11:24;;;;;;;12.13;6.22;;;20.40;99.90;;;20.69;73.12;102262.22;5098059;28;20497;-70
2021/08/23 05:13:53;;;;;;;6.60;5.20;;;20.40;99.90;;;20.74;73.08;102267.47;5115218;28;20555;-69
2021/08/23 05:16:23;;;;;;;11.98;5.75;;;20.40;99.90;;;20.72;73.51;102266.63;5098050;28;20071;-69
2021/08/23 05:18:52;;;;;;;9.02;5.53;;;20.40;99.90;;;20.71;73.47;102264.88;5116272;28;20052;-69
2021/08/23 05:21:20;;;;;;;8.20;5.35;;;20.40;99.90;;;20.77;73.38;102270.09;5115911;28;20122;-69
2021/08/23 05:23:48;;;;;;;10.95;5.32;;;20.40;99.90;;;20.80;73.10;102275.41;5115875;28;20494;-69
2021/08/23 05:26:17;;;;;;;8.35;5.47;;;20.40;99.90;;;20.72;73.17;102275.59;5116097;28;20057;-70
2021/08/23 05:28:46;;;;;;;9.70;6.22;;;20.40;99.90;;;20.57;72.89;102239.19;5097716;28;20504;-69
2021/08/23 05:31:14;;;;;;;7.95;5.35;;;20.50;99.90;;;20.75;73.30;102280.88;5115705;28;20043;-69
2021/08/23 05:33:44;;;;;;;9.70;5.70;;;20.40;99.90;;;20.69;73.53;102284.59;5115990;28;20151;-70
2021/08/23 05:36:12;;;;;;;12.73;6.30;;;20.40;99.90;;;20.74;73.72;102286.31;5115988;28;20454;-69
2021/08/23 05:38:41;;;;;;;10.52;5.50;;;20.40;99.90;;;20.74;73.80;102289.00;5115679;28;20398;-69
2021/08/23 05:41:09;;;;;;;8.07;5.10;;;20.40;99.90;;;20.76;73.89;102295.22;5093482;28;20364;-69
2021/08/23 05:43:38;;;;;;;13.73;6.05;;;20.40;99.90;;;20.84;73.72;102295.94;5094527;28;20048;-69
2021/08/23 05:46:06;;;;;;;10.20;6.00;;;20.50;99.90;;;20.77;74.24;102291.63;5094448;28;20130;-69
2021/08/23 05:48:35;;;;;;;11.27;6.22;;;20.50;99.90;;;20.81;74.53;102301.41;5094423;28;20040;-69
2021/08/23 05:51:05;;;;;;;8.48;5.65;;;20.50;99.90;;;20.88;74.37;102305.69;5094267;28;20044;-70
2021/08/23 05:53:33;;;;;;;6.90;5.30;;;20.60;99.90;;;20.86;74.76;102304.84;5094384;28;20083;-70
2021/08/23 05:56:02;;;;;;;11.98;6.05;;;20.50;99.90;;;20.86;74.61;102311.13;5094322;28;20091;-70
2021/08/23 05:58:30;;;;;;;9.27;6.03;;;20.60;99.90;;;20.90;75.02;102317.31;5094230;28;20574;-70
2021/08/23 06:00:58;;;;;;;13.60;6.38;;;20.60;99.90;;;20.90;75.14;102320.00;5094204;28;20047;-70
2021/08/23 06:03:27;;;;;;;9.60;5.28;;;20.60;99.90;;;20.89;75.23;102316.41;5094496;28;20047;-70
2021/08/23 06:05:56;;;;;;;11.43;5.78;;;20.60;99.90;;;20.92;75.26;102313.66;5093023;28;20082;-70
2021/08/23 06:08:26;;;;;;;9.43;5.82;;;20.60;99.90;;;20.92;75.36;102321.75;5092839;28;20398;-70
2021/08/23 06:10:54;;;;;;;8.30;5.35;;;20.60;99.90;;;20.80;75.33;102302.31;5092808;28;20048;-70
2021/08/23 06:13:23;;;;;;;9.30;6.10;;;20.60;99.90;;;20.91;75.46;102319.06;5093948;28;20049;-71
2021/08/23 06:15:54;;;;;;;11.13;5.40;;;20.60;99.90;;;20.97;75.64;102322.50;5094153;28;20128;-74
2021/08/23 06:18:22;;;;;;;8.32;5.80;;;20.70;99.90;;;20.91;75.72;102321.75;5094552;28;20105;-73
2021/08/23 06:20:51;;;;;;;9.60;5.85;;;20.60;99.90;;;20.85;75.77;102305.78;5093826;28;20044;-73
2021/08/23 06:23:20;;;;;;;9.35;6.40;;;20.60;99.90;;;20.94;75.93;102325.28;5093686;28;20071;-71
2021/08/23 06:25:49;;;;;;;11.85;6.40;;;20.70;99.90;;;20.90;75.96;102320.88;5093848;28;20032;-73
2021/08/23 06:28:19;;;;;;;11.70;6.00;;;20.60;99.90;;;20.92;76.26;102324.44;5092585;28;20040;-71
2021/08/23 06:30:48;;;;;;;12.55;6.45;;;20.60;99.90;;;20.99;76.66;102325.16;5093804;28;20040;-73
2021/08/23 06:33:16;;;;;;;12.77;5.97;;;20.70;99.90;;;20.94;76.56;102319.00;5093779;28;20044;-70
2021/08/23 06:35:45;;;;;;;12.75;6.47;;;20.70;99.90;;;21.07;76.37;102326.78;5093470;28;20044;-71
2021/08/23 06:38:13;;;;;;;8.20;5.97;;;20.70;99.90;;;21.05;76.54;102327.72;5093695;28;20043;-71
2021/08/23 06:40:42;;;;;;;10.00;6.03;;;20.70;99.90;;;20.87;76.14;102288.66;5102311;28;20051;-72
2021/08/23 06:43:12;;;;;;;9.63;5.63;;;20.80;99.90;;;21.18;75.95;102322.00;5113923;28;20044;-77
2021/08/23 06:45:41;;;;;;;9.25;6.00;;;20.90;99.90;;;21.16;75.93;102331.03;5113711;28;20444;-69
2021/08/23 06:48:10;;;;;;;12.48;5.85;;;20.90;99.90;;;21.14;76.00;102335.56;5113620;28;20440;-74
2021/08/23 06:50:40;;;;;;;7.22;5.43;;;20.90;99.90;;;21.00;75.91;102321.56;5113507;28;20047;-69
2021/08/23 06:53:10;;;;;;;12.10;5.93;;;20.80;99.90;;;21.03;76.03;102317.00;5114162;28;20044;-70
2021/08/23 06:55:39;;;;;;;8.55;5.63;;;20.90;99.90;;;21.15;75.86;102338.25;5113823;28;20044;-70
2021/08/23 06:58:07;;;;;;;10.98;5.53;;;20.90;99.90;;;21.02;76.10;102320.59;5113401;28;20032;-69
2021/08/23 07:00:37;;;;;;;9.60;5.88;;;20.90;99.90;;;20.58;76.10;102248.13;5095305;28;20039;-69
2021/08/23 07:03:07;;;;;;;10.65;6.28;;;20.90;99.90;;;21.19;76.20;102349.81;5114299;28;20044;-70
2021/08/23 07:05:36;;;;;;;11.27;6.32;;;20.90;99.90;;;21.21;75.97;102356.06;5113376;28;20032;-71
2021/08/23 07:08:05;;;;;;;14.20;6.32;;;20.90;99.90;;;21.25;75.83;102360.44;5113626;28;20048;-71
2021/08/23 07:10:33;;;;;;;9.15;5.97;;;21.00;99.90;;;21.23;75.38;102357.78;5113292;28;20070;-70
2021/08/23 07:13:02;;;;;;;10.38;6.25;;;21.00;99.90;;;21.25;75.42;102371.22;5113511;28;20067;-70
2021/08/23 07:15:31;;;;;;;10.05;6.10;;;21.00;99.90;;;21.32;75.38;102372.81;5113212;28;20028;-70
2021/08/23 07:18:01;;;;;;;9.85;5.55;;;21.00;99.90;;;20.69;75.49;102267.59;5113214;28;20048;-71
2021/08/23 07:20:31;;;;;;;9.68;5.35;;;21.00;99.90;;;21.41;75.24;102375.28;5113817;28;20039;-71
2021/08/23 07:22:59;;;;;;;9.68;5.82;;;21.10;99.90;;;21.25;75.46;102357.75;5113137;28;20070;-70
2021/08/23 07:25:28;;;;;;;10.45;5.80;;;21.10;99.90;;;21.42;75.34;102385.13;5113152;28;20050;-70
2021/08/23 07:27:57;;;;;;;7.80;5.20;;;21.10;99.90;;;21.41;74.74;102378.84;5095110;28;20051;-71
2021/08/23 07:30:25;;;;;;;10.65;5.57;;;21.10;99.90;;;21.44;74.71;102392.25;5113299;28;20131;-71
2021/08/23 07:32:54;;;;;;;8.18;5.70;;;21.20;99.90;;;21.43;75.11;102378.81;5113241;28;20128;-71
2021/08/23 07:35:24;;;;;;;10.10;5.43;;;21.10;99.90;;;21.47;74.63;102389.47;5113047;28;20044;-70
2021/08/23 07:37:52;;;;;;;10.25;5.65;;;21.20;99.90;;;21.51;74.68;102385.78;5114017;28;20131;-71
2021/08/23 07:40:22;;;;;;;12.02;5.72;;;21.20;99.90;;;20.86;74.63;102260.00;5112728;28;20077;-70
2021/08/23 07:42:50;;;;;;;12.07;5.50;;;21.30;99.90;;;21.61;73.55;102386.44;5094859;28;20120;-71
2021/08/23 07:45:21;;;;;;;9.70;5.80;;;21.30;99.90;;;21.56;73.56;102389.22;5113193;28;20080;-70
2021/08/23 07:47:50;;;;;;;11.07;5.65;;;21.30;99.90;;;21.70;73.71;102385.31;5112834;28;20233;-71
2021/08/23 07:50:20;;;;;;;9.02;5.40;;;21.30;99.90;;;21.79;73.04;102385.97;5113002;28;20041;-70
2021/08/23 07:52:49;;;;;;;9.27;5.35;;;21.50;99.90;;;21.90;72.17;102389.28;5112820;28;20050;-70
2021/08/23 07:55:18;;;;;;;7.80;5.20;;;21.60;99.90;;;21.91;71.70;102388.34;5113370;28;20061;-70
2021/08/23 07:57:49;;;;;;;10.98;4.90;;;21.70;99.90;;;21.98;71.36;102386.38;5112826;28;20142;-71
2021/08/23 08:00:21;;;;;;;7.47;4.90;;;21.70;99.90;;;22.02;71.19;102380.88;5112945;28;20048;-71
2021/08/23 08:02:50;;;;;;;11.23;5.38;;;21.80;99.90;;;22.11;70.29;102393.19;5113296;28;20394;-70
2021/08/23 08:05:19;;;;;;;8.75;4.88;;;21.90;99.90;;;22.27;70.00;102389.16;5112917;28;20032;-70
2021/08/23 08:07:49;;;;;;;9.13;5.38;;;22.00;99.90;;;22.30;69.25;102389.94;5112851;28;20435;-70
2021/08/23 08:10:18;;;;;;;8.90;4.90;;;22.10;99.90;;;22.43;68.43;102394.03;5112655;28;20040;-70
2021/08/23 08:12:46;;;;;;;7.90;4.78;;;22.20;99.90;;;22.58;68.46;102395.47;5112926;28;20031;-70
2021/08/23 08:15:15;;;;;;;8.38;5.22;;;22.40;99.90;;;22.61;68.43;102360.28;5094401;28;20059;-70
2021/08/23 08:17:43;;;;;;;8.88;5.00;;;22.50;99.90;;;22.94;67.66;102396.13;5112739;28;20389;-70
2021/08/23 08:20:13;;;;;;;10.32;5.05;;;22.70;99.90;;;23.00;66.46;102388.75;5112633;28;20135;-70
2021/08/23 08:22:43;;;;;;;9.88;5.50;;;22.80;99.90;;;23.02;65.27;102394.09;5112365;28;20050;-70
2021/08/23 08:25:13;;;;;;;8.20;4.80;;;22.80;99.90;;;23.04;65.21;102398.50;5094278;28;20071;-70
2021/08/23 08:27:42;;;;;;;6.82;4.28;;;22.80;99.90;;;23.18;65.12;102400.78;5094429;28;20048;-70
2021/08/23 08:30:15;;;;;;;9.38;5.07;;;23.00;99.90;;;23.25;64.02;102405.03;5112236;28;20057;-70
2021/08/23 08:32:43;;;;;;;11.10;4.93;;;23.10;99.90;;;23.31;63.16;102407.56;5112269;28;20039;-70
2021/08/23 08:35:12;;;;;;;6.13;4.57;;;23.10;99.90;;;23.32;62.29;102390.47;5112441;28;20052;-70
2021/08/23 08:37:42;;;;;;;10.68;4.88;;;23.20;99.90;;;23.59;62.32;102411.16;5112704;28;20047;-70
2021/08/23 08:40:13;;;;;;;12.38;4.57;;;23.30;99.90;;;23.74;62.12;102420.53;5094101;28;20112;-70
2021/08/23 08:42:43;;;;;;;6.85;4.07;;;23.50;99.90;;;23.92;60.95;102415.41;5112286;28;20414;-70
2021/08/23 08:45:13;;;;;;;9.52;4.47;;;23.70;99.90;;;23.91;59.41;102423.53;5112287;28;20058;-71
2021/08/23 08:47:43;;;;;;;8.38;4.28;;;23.70;99.90;;;23.83;59.48;102420.22;5113661;28;20474;-70
2021/08/23 08:50:16;;;;;;;9.70;4.55;;;23.60;99.90;;;23.86;59.26;102430.94;5116277;28;20101;-70
2021/08/23 08:52:47;;;;;;;9.35;4.53;;;23.70;99.90;;;23.87;60.07;102432.69;5115789;28;20032;-70
2021/08/23 08:55:18;;;;;;;4.85;3.83;;;23.60;99.90;;;24.00;60.16;102437.63;5116068;28;20402;-70
2021/08/23 08:57:46;;;;;;;6.50;4.18;;;23.80;99.90;;;24.04;59.32;102436.63;5115800;28;20066;-70
2021/08/23 09:00:16;;;;;;;7.25;4.63;;;23.80;99.90;;;23.98;58.68;102428.69;5115949;28;20484;-70
2021/08/23 09:02:59;;;;;;;11.63;4.63;;;23.90;99.90;;;24.14;58.40;102435.34;5097685;28;20383;-70
2021/08/23 09:05:36;;;;;;;;;;;23.90;99.90;;;24.14;58.56;102435.34;5116385;28;20044;-70
2021/08/23 09:08:07;;;;;;;10.05;4.50;;;24.00;99.90;;;23.95;57.49;102415.28;5115509;28;19924;-70
2021/08/23 09:10:41;;;;;;;5.50;4.00;;;23.90;99.90;;;24.07;57.85;102433.81;5115488;28;20044;-70
2021/08/23 09:13:12;;;;;;;8.35;4.50;;;23.90;99.90;;;24.09;57.54;102434.66;5115455;28;20051;-70
2021/08/23 09:15:53;;;;;;;8.07;4.22;;;23.90;99.90;;;23.86;57.41;102428.25;5097361;28;20440;-70
2021/08/23 09:18:27;;;;;;;6.70;4.53;;;23.70;99.90;;;24.11;57.99;102432.78;5097348;28;20044;-70
2021/08/23 09:21:01;;;;;;;10.38;4.40;;;23.80;99.90;;;24.27;57.16;102437.63;5115303;28;20044;-70
2021/08/23 09:23:38;;;;;;;8.00;4.38;;;24.00;99.90;;;24.39;57.56;102450.72;5097045;28;20059;-70
2021/08/23 09:26:13;;;;;;;5.97;4.18;;;24.10;99.90;;;24.36;57.72;102429.16;5115144;28;20067;-70
2021/08/23 09:28:44;;;;;;;6.30;4.50;;;24.20;99.90;;;24.59;56.81;102453.56;5115024;28;20388;-70
2021/08/23 09:31:13;;;;;;;7.63;4.65;;;24.40;99.90;;;24.64;57.35;102440.75;5114883;28;20069;-70
2021/08/23 09:33:43;;;;;;;6.88;3.92;;;24.40;99.90;;;24.81;57.05;102422.06;5096452;28;20417;-70
2021/08/23 09:36:13;;;;;;;7.13;4.20;;;24.70;99.90;;;24.84;55.80;102449.91;5096741;28;20192;-70
2021/08/23 09:38:44;;;;;;;9.27;3.93;;;24.60;99.90;;;24.99;56.04;102448.41;5114424;28;20048;-70
2021/08/23 09:41:14;;;;;;;7.03;4.10;;;24.80;99.90;;;24.95;54.81;102455.78;5114996;28;20051;-70
2021/08/23 09:43:42;;;;;;;5.80;3.90;;;24.80;99.90;;;24.89;54.65;102447.03;5114962;28;20089;-70
2021/08/23 09:46:11;;;;;;;7.72;4.32;;;24.70;99.90;;;24.72;54.41;102449.47;5096574;28;20549;-70
2021/08/23 09:48:52;;;;;;;8.63;4.30;;;24.60;99.90;;;24.77;53.96;102433.97;5114571;28;20471;-70
2021/08/23 09:51:32;;;;;;;5.05;4.15;;;24.60;99.90;;;24.99;54.07;102451.13;5114664;28;20043;-70
2021/08/23 09:54:10;;;;;;;4.97;3.75;;;24.80;99.90;;;25.18;53.93;102457.63;5114692;28;20440;-70
2021/08/23 09:56:49;;;;;;;8.00;3.50;;;25.00;99.90;;;25.15;52.16;102451.41;5114627;28;20043;-70
2021/08/23 09:59:19;;;;;;;5.70;3.30;;;25.00;99.90;;;25.23;51.49;102452.88;5114175;28;20105;-70
2021/08/23 10:01:53;;;;;;;;;;;25.00;99.90;;;25.27;49.85;102440.97;5114992;28;20047;-70
2021/08/23 10:04:22;;;;;;;4.60;3.35;;;25.20;99.90;;;25.41;50.36;102454.00;5114545;28;20425;-70
2021/08/23 10:06:53;;;;;;;5.15;3.45;;;25.20;99.90;;;25.63;50.01;102455.75;5114360;28;20443;-70
2021/08/23 10:09:24;;;;;;;5.40;3.58;;;25.40;99.90;;;25.63;49.44;102455.75;5114341;28;20036;-70
2021/08/23 10:11:56;;;;;;;5.68;3.53;;;25.40;99.90;;;25.79;50.10;102456.91;5114554;28;20043;-69
2021/08/23 10:14:25;;;;;;;6.53;3.78;;;25.50;99.90;;;25.83;50.28;102460.34;5114401;28;20039;-70
2021/08/23 10:16:54;;;;;;;4.67;3.07;;;25.70;99.90;;;25.67;50.13;102459.22;5114230;28;20043;-70
2021/08/23 10:19:23;;;;;;;6.55;3.63;;;25.50;99.90;;;25.81;50.72;102454.09;5096381;28;20131;-70